Aeroporto :
LOGIN :

Iscrizione | Disclaimer

   EN    FR    IT 

 










Sommario :    VFR   VFR Marginale   IFR   IFR Intensivo   IFR Molto Intensivo
Visibilità : 
Base nubi : 
>= 8 km
>= 3000ft
5 / 8 km
1000 / 3000 ft
1500m / 5 km
500 / 1000 ft
800 / 1500m
200 / 500 ft
< 800m
< 200 ft
Simboli :   Temporali  Nebbia  Neve Forte  Precipitazioni Forti  Vento > 20 kt
SIGMETs :   Varie  Temporali  Ghiacco  Turbolenza  Onda orograficha  Ceneri Vulcaniche






- Altitudine del aeroporto : 659 ft
- Codice IATA : LGG


EBLG - Liège

ULTIMO METAR :
  • 180420Z 14008KT CAVOK 16/13 Q1013 NOSIG

METARs OBSOLETI :
  • 180350Z 14007KT CAVOK 16/12 Q1013 NOSIG
  • 180320Z 13007KT CAVOK 15/12 Q1013 NOSIG
  • 180250Z 14005KT CAVOK 15/12 Q1014 NOSIG
  • 180220Z 14007KT 120V190 CAVOK 15/12 Q1014 NOSIG
  • 180150Z 13006KT CAVOK 15/12 Q1014 NOSIG
  • 180120Z 14006KT CAVOK 15/13 Q1014 NOSIG
  • 180050Z 13006KT CAVOK 15/13 Q1014 NOSIG
  • 180020Z 13006KT CAVOK 15/13 Q1015 NOSIG
  • 172350Z 13006KT CAVOK 15/13 Q1014 NOSIG

TAF TAF EBLG
Valido dal 18 a 00 ore il 19 a 06 ore UTC


172300Z 1800/1906 VRB03KT 8000 FEW040
PROB30
TEMPO 1802/1806 1500 BR MIFG
PROB40
TEMPO 1810/1820 VRB15G33KT 2000 SHRA TSRAGR SCT010 BKN018CB
BECMG 1818/1820 01010KT
BECMG 1820/1822 SCT004 BKN009
TEMPO 1823/1906 3500 BR BKN004
PROB30 1901/1906 0850 FG BKN002



MetMap, La meteo Aeronautica in un colpo d'occhio ! - Copyright ORBIFLY Dicembre 2007 - Disclaimer

ORBIFLY MET'MAP TEAM :

Programmazione e sviluppo : Alexandra Zaïnal
Concezione : Baudouin d'Aumeries
Supporto tecnico e logistico : Manuel Goepfert
Aiuto : Marc-Olivier Méhu
Aiuto per la traduzione : Arnaldo La Scala




FONTI E CREDITI :

   NOAA